Maria S. Merian — DBBT — position and weather

sailwx.info

Track history (hours):
 
Tides and Currents Weather Stations Pressure Air Temp Water Temp Dewpoint Dewpoint Depression Visibility Wind Speed Wind Dir Waves Ship Positions

Oceanographic research ship Maria S. Merian (Germany)

Last reported at 2016-Aug-23 22:00 UTC. Time now 2016-Aug-24 01:35 UTC.
Position N 78°30' E 009°24'.

Length 94.8 m; beam 19.2 m; draft 6.5 m.

Type: Other ship. MMSI: 211753000.

Wind from 220 at 6 knots

Barometer 1022.1 mb
Air temperature 5.4 ° C
Dewpoint -1.8 ° C
Water temperature 7.8 ° C

Date/timePositionNaut miles runAvg speedWind from/ knotsBaromVisibWave heightAir tempDewpointWater temp
2016-Aug-23 22:00N 78°30' E 009°24'0 0.0 220 / 61022.1 5.4-1.8 7.8
2016-Aug-23 20:00N 78°30' E 009°24'0 0.0 300 / 41022.5 4.2-2.5 7.7
2016-Aug-23 19:00N 78°30' E 009°24'0 0.0 300 / 61022.8 3.8-2.9 7.7
2016-Aug-23 18:00N 78°30' E 009°24'0 0.0 320 / 61022.8 3.9-2.8 7.8
2016-Aug-23 17:00N 78°30' E 009°24'0 0.0 320 / 81022.8 3.5-2.8 7.7
2016-Aug-23 16:00N 78°30' E 009°24'0 0.0 300 / 81022.9 4.0-3.2 7.7
2016-Aug-23 14:00N 78°30' E 009°24'0 0.0 350 / 101022.9 3.2-3.7 7.7
2016-Aug-23 13:00N 78°30' E 009°24'0 0.0 340 / 101022.8 3.0-4.1 7.6
2016-Aug-23 12:00N 78°30' E 009°24'0 0.0 360 / 141022.5 3.0-3.6 7.8
2016-Aug-23 11:00N 78°30' E 009°24'0 0.0 360 / 141022.4 3.2-3.4 7.6
2016-Aug-23 10:00N 78°30' E 009°24'0 0.0 360 / 161021.9 3.3-4.0 7.8
2016-Aug-23 09:00N 78°30' E 009°24'0 0.0 360 / 171021.8 3.1-2.3 7.7
2016-Aug-23 08:00N 78°30' E 009°24'0 0.0 360 / 171021.0 3.0-4.2 7.6
2016-Aug-23 07:00N 78°30' E 009°24'0 0.0 360 / 191020.3 3.4-1.3 7.5
2016-Aug-23 06:00N 78°30' E 009°24'2 2.4 010 / 191019.9 3.1-2.6 7.6
2016-Aug-23 05:00N 78°30' E 009°12'9 9.4 360 / 271018.5 3.3-2.2 7.6
2016-Aug-23 04:00N 78°24' E 008°36'9 9.4 010 / 251017.2 3.8-2.8 7.7
2016-Aug-23 03:00N 78°18' E 008°00'9 8.6 360 / 251016.7 3.2-0.0 7.7
2016-Aug-23 02:00N 78°12' E 007°30'4 3.7 360 / 211015.8 4.3 1.9 7.5
2016-Aug-23 01:00N 78°12' E 007°12'25 8.5 010 / 161014.9 5.0 2.2 7.4
2016-Aug-22 22:00N 78°36' E 006°30'1110.7 010 / 161012.1 5.4 2.5 7.8
2016-Aug-22 21:00N 78°36' E 007°24'9 9.5 350 / 101010.8 6.2 1.6 7.9
2016-Aug-22 20:00N 78°36' E 008°12'1110.7 320 / 81010.2 6.0 3.2 7.7
2016-Aug-22 19:00N 78°36' E 009°06'7 7.0 330 / 81009.4 6.2 3.3 7.8
2016-Aug-22 18:00N 78°30' E 009°24'0 0.0 330 / 121008.8 6.1 3.3 7.6
2016-Aug-22 17:00N 78°30' E 009°24'0 0.0 310 / 141008.3 6.2 3.2 7.7
2016-Aug-22 16:00N 78°30' E 009°24'0 0.0 290 / 141007.9 6.4 3.4 7.7
2016-Aug-22 15:00N 78°30' E 009°24'0 0.0 280 / 141007.3 6.1 2.6 7.6
2016-Aug-22 14:00N 78°30' E 009°24'0 0.0 250 / 141006.9 6.5 3.6 7.6
2016-Aug-22 09:00N 78°30' E 009°24'0 0.0 210 / 141007.2 6.0 2.4 7.7
2016-Aug-22 08:00N 78°30' E 009°24'0 0.0 200 / 121007.3 5.7 2.1 7.7
2016-Aug-22 07:00N 78°30' E 009°24'22 2.5 200 / 121007.8 5.8 2.2 7.6
2016-Aug-21 22:00N 78°12' E 008°18'9 8.6 230 / 61009.5 3.1 2.3 7.7
2016-Aug-21 21:00N 78°18' E 008°48'8 7.7 230 / 81009.0 3.3 2.6 7.8
2016-Aug-21 20:00N 78°24' E 009°12'1312.5 250 / 41008.2 2.9 2.4 7.5
2016-Aug-21 19:00N 78°36' E 009°30'0 0.0 250 / 61007.9 3.1 2.3 7.6
2016-Aug-21 18:00N 78°36' E 009°30'0 0.0 270 / 61007.8 3.4 2.6 7.7
2016-Aug-21 17:00N 78°36' E 009°30'0 0.0 260 / 81007.4 3.3 2.2 7.6
2016-Aug-21 16:00N 78°36' E 009°30'0 0.0 290 / 81007.2 3.5 2.4 7.7
2016-Aug-21 15:00N 78°36' E 009°30'0 0.0 280 / 81006.6 3.3 2.1 7.7
2016-Aug-21 14:00N 78°36' E 009°30'0 0.0 290 / 101006.2 3.6 2.1 7.6
2016-Aug-21 13:00N 78°36' E 009°30'0 0.0 320 / 81005.7 3.5 2.4 7.5
2016-Aug-21 12:00N 78°36' E 009°30'0 0.0 310 / 121005.3 3.4 2.5 7.4
2016-Aug-21 11:00N 78°36' E 009°30'0 0.0 320 / 141004.8 4.0 2.8 7.4
2016-Aug-21 10:00N 78°36' E 009°30'0 0.0 330 / 141004.3 3.8 2.9 7.3
2016-Aug-21 09:00N 78°36' E 009°30'0 0.0 330 / 171004.0 4.2 3.7 7.3
2016-Aug-21 08:00N 78°36' E 009°30'0 0.0 340 / 141002.9 5.2 4.6 7.2
2016-Aug-21 07:00N 78°36' E 009°30'0 0.0 250 / 101002.5 5.4 4.3 7.2
2016-Aug-21 06:00N 78°36' E 009°30'0 0.0 240 / 141002.5 4.6 3.8 7.3
2016-Aug-21 05:00N 78°36' E 009°30'0 0.0 250 / 161002.2 4.7 3.6 7.2
2016-Aug-21 04:00N 78°36' E 009°30'0 0.0 250 / 161001.8 5.0 4.7 7.3
2016-Aug-21 03:00N 78°36' E 009°30'0 0.0 240 / 171001.4 4.9 4.6 7.4
2016-Aug-21 02:00N 78°36' E 009°30'0 0.0 240 / 171001.2 5.7 5.1 7.2
2016-Aug-21 01:00N 78°36' E 009°30'0 0.0 240 / 161001.0 5.1 4.5 7.3
2016-Aug-21 00:00N 78°36' E 009°30'0 0.0 250 / 141000.8 5.5 5.0 7.2
2016-Aug-20 23:00N 78°36' E 009°30'0 0.0 240 / 161000.6 5.8 4.9 7.3
2016-Aug-20 22:00N 78°36' E 009°30'0 0.0 220 / 161000.9 5.3 4.7 7.2
2016-Aug-20 21:00N 78°36' E 009°30'0 0.0 200 / 121001.2 5.9 5.3 7.2
2016-Aug-20 20:00N 78°36' E 009°30'0 0.0 190 / 171001.4 6.4 4.7 7.3
2016-Aug-20 19:00N 78°36' E 009°30'0 0.0 190 / 141001.7 6.2 5.1 7.3
2016-Aug-20 18:00N 78°36' E 009°30'0 0.0 190 / 141002.0 6.7 4.8 7.2
2016-Aug-20 17:00N 78°36' E 009°30'0 0.0 170 / 161002.6 6.1 6.1 7.2
2016-Aug-20 16:00N 78°36' E 009°30'0 0.0 170 / 161003.3 6.2 5.8 7.3
2016-Aug-20 15:00N 78°36' E 009°30'0 0.0 180 / 171004.1 6.1 5.6 7.3
2016-Aug-20 14:00N 78°36' E 009°30'0 0.0 180 / 191004.7 6.2 5.8 7.3
2016-Aug-20 13:00N 78°36' E 009°30'0 0.0 170 / 191005.7 5.9 5.6 7.2
2016-Aug-20 12:00N 78°36' E 009°30'0 0.0 170 / 171006.5 5.8 5.7 7.3
2016-Aug-20 11:00N 78°36' E 009°30'0 0.0 180 / 171007.6 6.1 5.5 7.2
2016-Aug-20 10:00N 78°36' E 009°30'0 0.0 190 / 141008.3 6.0 5.9 7.3
2016-Aug-20 09:00N 78°36' E 009°30'0 0.0 180 / 161009.0 5.7 5.7 7.2
2016-Aug-20 08:00N 78°36' E 009°30'0 0.0 180 / 161009.0 5.5 4.8 7.2
2016-Aug-20 07:00N 78°36' E 009°30'23 5.8 200 / 171009.5 5.5 4.6 7.2
2016-Aug-20 03:00N 78°18' E 008°18'1313.5 200 / 141011.1 5.6 5.4 7.9
2016-Aug-20 02:00N 78°06' E 007°48'1212.2 210 / 141012.1 5.5 5.5 8.0
2016-Aug-20 01:00N 78°18' E 007°36'6 6.5 220 / 161011.9 5.3 5.3 7.5
2016-Aug-20 00:00N 78°24' E 007°24'10 5.2 210 / 171012.2 5.4 5.3 7.4
2016-Aug-19 22:00N 78°30' E 008°06'10 9.6 200 / 171012.1 6.0 5.5 7.7
2016-Aug-19 21:00N 78°30' E 008°54'9 9.3 210 / 171012.4 5.9 5.8 7.6
2016-Aug-19 20:00N 78°36' E 009°30'0 0.0 200 / 161012.5 6.8 7.8
2016-Aug-19 18:00N 78°36' E 009°30'0 0.0 200 / 171013.1 7.2 7.2 7.8
2016-Aug-19 17:00N 78°36' E 009°30'0 0.0 200 / 171013.2 7.2 7.2 7.7
2016-Aug-19 16:00N 78°36' E 009°30'0 0.0 200 / 161013.0 7.3 7.3 7.7
2016-Aug-19 15:00N 78°36' E 009°30'0 0.0 180 / 161012.9 7.3 7.2 7.7
2016-Aug-19 13:00N 78°36' E 009°30'0 0.0 170 / 141013.3 6.9 6.9 7.7
2016-Aug-19 12:00N 78°36' E 009°30'0 0.0 170 / 141013.2 6.5 6.5 7.7
2016-Aug-19 11:00N 78°36' E 009°30'0 0.0 190 / 161013.5 6.5 7.8
2016-Aug-19 10:00N 78°36' E 009°30'0 0.0 200 / 161013.3 6.4 6.4 7.8
2016-Aug-19 07:00N 78°36' E 009°30'6 6.1 230 / 141012.5 6.5 6.5 7.8
2016-Aug-19 06:00N 78°30' E 009°24'8 8.5 230 / 161012.8 7.0 6.8 7.6
2016-Aug-19 05:00N 78°24' E 008°54'8 7.7 230 / 171012.1 7.1 6.8 7.7
2016-Aug-19 04:00N 78°18' E 008°30'6 3.2 230 / 171012.1 7.2 7.2 8.1
2016-Aug-19 02:00N 78°24' E 008°42'9 9.4 220 / 191010.9 7.5 7.4 8.1
2016-Aug-19 01:00N 78°30' E 009°18'6 6.5 210 / 211010.5 7.3 7.7
2016-Aug-19 00:00N 78°36' E 009°30'0 0.0 200 / 191010.5 7.6 7.4 7.7
2016-Aug-18 23:00N 78°36' E 009°30'0 0.0 200 / 191010.2 7.5 7.5 7.8
2016-Aug-18 22:00N 78°36' E 009°30'0 0.0 190 / 211009.9 7.5 7.5 7.7
2016-Aug-18 20:00N 78°36' E 009°30'0 0.0 180 / 231009.2 7.7 7.7 7.7
2016-Aug-18 19:00N 78°36' E 009°30'0 0.0 180 / 231009.4 7.7 7.7 7.8
2016-Aug-18 18:00N 78°36' E 009°30'0 0.0 180 / 231009.9 7.8 7.7 7.7
2016-Aug-18 17:00N 78°36' E 009°30'0 0.0 170 / 211010.0 7.6 7.7
2016-Aug-18 16:00N 78°36' E 009°30'0 0.0 170 / 191010.4 7.6 7.7
2016-Aug-18 15:00N 78°36' E 009°30'0 0.0 180 / 191009.5 7.7 7.7 7.7
2016-Aug-18 14:00N 78°36' E 009°30'0 0.0 180 / 211009.7 7.7 7.7 7.7
2016-Aug-18 13:00N 78°36' E 009°30'0 0.0 170 / 211009.6 7.7 7.7 7.8
2016-Aug-18 10:00N 78°36' E 009°30'0 0.0 150 / 231011.5 6.9 6.9 7.6
2016-Aug-18 09:00N 78°36' E 009°30'0 0.0 160 / 211011.8 6.8 6.8 7.6
2016-Aug-18 08:00N 78°36' E 009°30'6 6.1 170 / 251011.7 6.6 6.5 7.2
2016-Aug-18 07:00N 78°42' E 009°24'6 6.1 170 / 251011.8 6.2 6.9
2016-Aug-18 06:00N 78°36' E 009°30'0 0.0 180 / 191012.7 5.9 5.3 7.2
2016-Aug-18 05:00N 78°36' E 009°30'0 0.0 180 / 211012.3 6.1 6.0 7.9
2016-Aug-18 04:00N 78°36' E 009°30'0 0.0 180 / 171012.4 5.7 5.5 7.8
2016-Aug-18 03:00N 78°36' E 009°30'0 0.0 200 / 161013.4 5.4 5.3 7.9
2016-Aug-18 02:00N 78°36' E 009°30'0 0.0 220 / 141012.5 6.2 5.8 7.8
2016-Aug-17 23:00N 78°36' E 009°30'0 0.0 290 / 161010.8 6.2 5.9 7.8
2016-Aug-17 22:00N 78°36' E 009°30'0 0.0 290 / 211009.2 6.1 6.1 7.8
2016-Aug-17 21:00N 78°36' E 009°30'0 0.0 280 / 211007.2 6.1 7.8
2016-Aug-17 20:00N 78°36' E 009°30'0 0.0 260 / 191006.6 6.8 7.8
2016-Aug-17 19:00N 78°36' E 009°30'1 0.6 240 / 171006.2 7.1 7.0 7.8
2016-Aug-17 17:00N 78°36' E 009°24'7 7.0 210 / 161004.6 7.0 7.9
2016-Aug-17 16:00N 78°30' E 009°06'1110.8 210 / 161004.0 7.1 7.1 8.0
2016-Aug-17 15:00N 78°30' E 008°12'10 9.6 210 / 171003.4 7.0 7.0 8.1
2016-Aug-17 14:00N 78°30' E 007°24'24 3.4 210 / 171003.2 7.0 7.0 7.5
2016-Aug-17 07:00N 78°18' E 005°42'6 1.2 120 / 231005.5 7.0 6.9 7.8
2016-Aug-17 02:00N 78°24' E 005°42'0 0.0 120 / 141010.3 7.4 6.3 7.7
2016-Aug-17 01:00N 78°24' E 005°42'0 0.0 120 / 161011.2 7.1 6.0 7.6
2016-Aug-16 23:00N 78°24' E 005°42'0 0.0 140 / 171013.0 6.9 4.6 7.6
2016-Aug-16 22:00N 78°24' E 005°42'6 3.1 150 / 161013.6 6.5 4.6 7.6
2016-Aug-16 20:00N 78°18' E 005°48'1 1.2 150 / 141014.8 5.9 3.8 7.1
2016-Aug-16 19:00N 78°18' E 005°42'6 6.0 160 / 161015.0 5.9 4.0 7.6
2016-Aug-16 18:00N 78°24' E 005°42'6 6.0 170 / 161015.4 6.1 4.2 7.6
2016-Aug-16 17:00N 78°30' E 005°42'6 6.1 170 / 141015.5 6.2 2.9 7.5
2016-Aug-16 16:00N 78°36' E 005°48'1 1.2 190 / 121015.9 6.7 3.2 7.4
2016-Aug-16 15:00N 78°36' E 005°42'0 0.0 200 / 141016.1 6.7 2.8 7.5
2016-Aug-16 14:00N 78°36' E 005°42'13 6.6 200 / 161016.5 6.6 3.2 7.5
2016-Aug-16 12:00N 78°42' E 006°42'9 9.4 210 / 171016.4 6.6 4.1 7.6
2016-Aug-16 11:00N 78°42' E 007°30'1111.2 200 / 161016.6 6.7 4.2 7.9
2016-Aug-16 10:00N 78°36' E 008°18'9 9.5 190 / 141016.4 6.1 4.1 7.1
2016-Aug-16 09:00N 78°36' E 009°06'5 2.4 190 / 101016.4 5.1 2.8 6.9
2016-Aug-16 07:00N 78°36' E 009°30'0 0.0 220 / 61016.4 4.9 3.4 7.2
2016-Aug-16 06:00N 78°36' E 009°30'0 0.0 230 / 81016.0 5.0 3.8 7.3
2016-Aug-16 05:00N 78°36' E 009°30'0 0.0 260 / 61015.9 5.0 3.7 7.3
2016-Aug-16 03:00N 78°36' E 009°30'0 0.0 999 / 21015.2 6.2 3.8 7.3
2016-Aug-16 02:00N 78°36' E 009°30'0 0.0 999 / 21014.5 5.6 4.0 7.2
2016-Aug-16 01:00N 78°36' E 009°30'0 0.0 280 / 41014.4 5.6 4.3 7.2
2016-Aug-16 00:00N 78°36' E 009°30'0 0.0 150 / 61014.3 6.1 4.4 7.2
2016-Aug-15 22:00N 78°36' E 009°30'0 0.0 210 / 41013.9 5.8 4.0 7.2
2016-Aug-15 21:00N 78°36' E 009°30'0 0.0 220 / 61013.9 5.8 3.7 7.4
2016-Aug-15 20:00N 78°36' E 009°30'0 0.0 170 / 101013.9 5.4 3.3 7.2
2016-Aug-15 18:00N 78°36' E 009°30'0 0.0 180 / 81014.1 5.0 1.4 7.4
2016-Aug-15 16:00N 78°36' E 009°30'0 0.0 190 / 141014.2 5.5 2.8 7.2
2016-Aug-15 15:00N 78°36' E 009°30'0 0.0 160 / 141014.3 5.3 2.1 7.2
2016-Aug-15 14:00N 78°36' E 009°30'0 0.0 150 / 141014.2 4.9 1.5 7.1
2016-Aug-15 13:00N 78°36' E 009°30'1 0.6 180 / 121014.5 5.2 0.6 7.3
2016-Aug-15 11:00N 78°36' E 009°24'0 0.0 180 / 141014.7 4.9 1.8 7.3
2016-Aug-15 10:00N 78°36' E 009°24'0 0.0 200 / 121014.4 4.6 1.3 7.2
2016-Aug-15 09:00N 78°36' E 009°24'0 0.0 220 / 81014.3 4.3 1.2 7.3
2016-Aug-15 08:00N 78°36' E 009°24'0 0.0 210 / 101014.0 4.3 1.3 7.3
2016-Aug-15 07:00N 78°36' E 009°24'0 0.0 999 / 21013.9 4.4 1.3 7.3
2016-Aug-15 06:00N 78°36' E 009°24'0 0.0 260 / 61013.9 4.1 0.3 7.1
2016-Aug-15 04:00N 78°36' E 009°24'0 0.0 260 / 41013.5 3.7 0.5 7.2
2016-Aug-15 03:00N 78°36' E 009°24'0 0.0 270 / 61013.5 4.2 0.7 7.2
2016-Aug-15 02:00N 78°36' E 009°24'0 0.0 300 / 61012.6 3.8 1.0 7.2
2016-Aug-15 01:00N 78°36' E 009°24'0 0.0 300 / 101012.3 3.6 1.4 7.2
2016-Aug-15 00:00N 78°36' E 009°24'0 0.0 290 / 81012.0 3.8 0.6 7.2
2016-Aug-14 23:00N 78°36' E 009°24'0 0.0 310 / 61011.3 4.1 0.6 7.2
2016-Aug-14 22:00N 78°36' E 009°24'0 0.0 270 / 61010.9 4.1-0.1 7.1
2016-Aug-14 21:00N 78°36' E 009°24'0 0.0 300 / 41010.5 4.2-0.5 7.1
2016-Aug-14 20:00N 78°36' E 009°24'0 0.0 310 / 81010.0 4.2 0.4 7.2
2016-Aug-14 19:00N 78°36' E 009°24'0 0.0 320 / 81009.7 4.2-0.2 7.3
2016-Aug-14 18:00N 78°36' E 009°24'0 0.0 320 / 101009.0 4.1 0.5 7.3
2016-Aug-14 17:00N 78°36' E 009°24'0 0.0 320 / 121008.4 4.2 0.9 7.3
2016-Aug-14 16:00N 78°36' E 009°24'7 7.0 310 / 121007.7 4.1 1.2 7.2
2016-Aug-14 15:00N 78°42' E 009°06'19 9.6 310 / 121007.0 4.6 1.9 7.2
2016-Aug-14 13:00N 79°00' E 008°30'6 6.0 330 / 191004.9 4.3 3.0 7.2
2016-Aug-14 12:00N 78°54' E 008°30'6 6.4 280 / 121003.4 5.1 2.5 6.7
2016-Aug-14 11:00N 78°48' E 008°42'9 9.2 260 / 191002.6 4.0 2.2 7.2
2016-Aug-14 10:00N 78°42' E 009°18'1212.1 250 / 171002.5 4.5 3.6 7.4
2016-Aug-14 09:00N 78°30' E 009°24'6 3.0 220 / 271002.4 5.5 4.0 7.1
2016-Aug-14 07:00N 78°36' E 009°24'0 0.0 220 / 271002.3 4.9 3.0 7.3
2016-Aug-14 06:00N 78°36' E 009°24'0 0.0 220 / 271002.0 6.4 4.3 7.2
2016-Aug-14 05:00N 78°36' E 009°24'6 6.0 200 / 231002.5 6.3 5.1 7.2
2016-Aug-14 04:00N 78°30' E 009°24'1 1.2 190 / 251003.2 6.1 5.2 7.2
2016-Aug-14 03:00N 78°30' E 009°30'6 6.1 190 / 211004.1 7.0 5.3 7.2
2016-Aug-14 02:00N 78°36' E 009°24'0 0.0 190 / 211004.7 5.8 5.0 7.2
2016-Aug-14 01:00N 78°36' E 009°24'6 6.1 180 / 191005.6 6.4 4.6 7.2
2016-Aug-14 00:00N 78°30' E 009°30'2 1.2 190 / 171006.0 6.1 4.4 7.3
2016-Aug-13 22:00N 78°30' E 009°18'   200 / 191006.5 6.1 3.9 7.2
Track history (hours):
 
Tides and Currents Weather Stations Pressure Air Temp Water Temp Dewpoint Dewpoint Depression Visibility Wind Speed Wind Dir Waves Ship Positions

Oceanographic research ship Maria S. Merian (Germany)

Last reported at 2016-Aug-23 22:00 UTC. Time now 2016-Aug-24 01:35 UTC.
Position N 78°30' E 009°24'.

Length 94.8 m; beam 19.2 m; draft 6.5 m.

Type: Other ship. MMSI: 211753000.

Wind from 220 at 6 knots

Barometer 1022.1 mb
Air temperature 5.4 ° C
Dewpoint -1.8 ° C
Water temperature 7.8 ° C

Date/timePositionNaut miles runAvg speedWind from/ knotsBaromVisibWave heightAir tempDewpointWater temp
2016-Aug-23 22:00N 78°30' E 009°24'0 0.0 220 / 61022.1 5.4-1.8 7.8
2016-Aug-23 20:00N 78°30' E 009°24'0 0.0 300 / 41022.5 4.2-2.5 7.7
2016-Aug-23 19:00N 78°30' E 009°24'0 0.0 300 / 61022.8 3.8-2.9 7.7
2016-Aug-23 18:00N 78°30' E 009°24'0 0.0 320 / 61022.8 3.9-2.8 7.8
2016-Aug-23 17:00N 78°30' E 009°24'0 0.0 320 / 81022.8 3.5-2.8 7.7
2016-Aug-23 16:00N 78°30' E 009°24'0 0.0 300 / 81022.9 4.0-3.2 7.7
2016-Aug-23 14:00N 78°30' E 009°24'0 0.0 350 / 101022.9 3.2-3.7 7.7
2016-Aug-23 13:00N 78°30' E 009°24'0 0.0 340 / 101022.8 3.0-4.1 7.6
2016-Aug-23 12:00N 78°30' E 009°24'0 0.0 360 / 141022.5 3.0-3.6 7.8
2016-Aug-23 11:00N 78°30' E 009°24'0 0.0 360 / 141022.4 3.2-3.4 7.6
2016-Aug-23 10:00N 78°30' E 009°24'0 0.0 360 / 161021.9 3.3-4.0 7.8
2016-Aug-23 09:00N 78°30' E 009°24'0 0.0 360 / 171021.8 3.1-2.3 7.7
2016-Aug-23 08:00N 78°30' E 009°24'0 0.0 360 / 171021.0 3.0-4.2 7.6
2016-Aug-23 07:00N 78°30' E 009°24'0 0.0 360 / 191020.3 3.4-1.3 7.5
2016-Aug-23 06:00N 78°30' E 009°24'2 2.4 010 / 191019.9 3.1-2.6 7.6
2016-Aug-23 05:00N 78°30' E 009°12'9 9.4 360 / 271018.5 3.3-2.2 7.6
2016-Aug-23 04:00N 78°24' E 008°36'9 9.4 010 / 251017.2 3.8-2.8 7.7
2016-Aug-23 03:00N 78°18' E 008°00'9 8.6 360 / 251016.7 3.2-0.0 7.7
2016-Aug-23 02:00N 78°12' E 007°30'4 3.7 360 / 211015.8 4.3 1.9 7.5
2016-Aug-23 01:00N 78°12' E 007°12'25 8.5 010 / 161014.9 5.0 2.2 7.4
2016-Aug-22 22:00N 78°36' E 006°30'1110.7 010 / 161012.1 5.4 2.5 7.8
2016-Aug-22 21:00N 78°36' E 007°24'9 9.5 350 / 101010.8 6.2 1.6 7.9
2016-Aug-22 20:00N 78°36' E 008°12'1110.7 320 / 81010.2 6.0 3.2 7.7
2016-Aug-22 19:00N 78°36' E 009°06'7 7.0 330 / 81009.4 6.2 3.3 7.8
2016-Aug-22 18:00N 78°30' E 009°24'0 0.0 330 / 121008.8 6.1 3.3 7.6
2016-Aug-22 17:00N 78°30' E 009°24'0 0.0 310 / 141008.3 6.2 3.2 7.7
2016-Aug-22 16:00N 78°30' E 009°24'0 0.0 290 / 141007.9 6.4 3.4 7.7
2016-Aug-22 15:00N 78°30' E 009°24'0 0.0 280 / 141007.3 6.1 2.6 7.6
2016-Aug-22 14:00N 78°30' E 009°24'0 0.0 250 / 141006.9 6.5 3.6 7.6
2016-Aug-22 09:00N 78°30' E 009°24'0 0.0 210 / 141007.2 6.0 2.4 7.7
2016-Aug-22 08:00N 78°30' E 009°24'0 0.0 200 / 121007.3 5.7 2.1 7.7
2016-Aug-22 07:00N 78°30' E 009°24'22 2.5 200 / 121007.8 5.8 2.2 7.6
2016-Aug-21 22:00N 78°12' E 008°18'9 8.6 230 / 61009.5 3.1 2.3 7.7
2016-Aug-21 21:00N 78°18' E 008°48'8 7.7 230 / 81009.0 3.3 2.6 7.8
2016-Aug-21 20:00N 78°24' E 009°12'1312.5 250 / 41008.2 2.9 2.4 7.5
2016-Aug-21 19:00N 78°36' E 009°30'0 0.0 250 / 61007.9 3.1 2.3 7.6
2016-Aug-21 18:00N 78°36' E 009°30'0 0.0 270 / 61007.8 3.4 2.6 7.7
2016-Aug-21 17:00N 78°36' E 009°30'0 0.0 260 / 81007.4 3.3 2.2 7.6
2016-Aug-21 16:00N 78°36' E 009°30'0 0.0 290 / 81007.2 3.5 2.4 7.7
2016-Aug-21 15:00N 78°36' E 009°30'0 0.0 280 / 81006.6 3.3 2.1 7.7
2016-Aug-21 14:00N 78°36' E 009°30'0 0.0 290 / 101006.2 3.6 2.1 7.6
2016-Aug-21 13:00N 78°36' E 009°30'0 0.0 320 / 81005.7 3.5 2.4 7.5
2016-Aug-21 12:00N 78°36' E 009°30'0 0.0 310 / 121005.3 3.4 2.5 7.4
2016-Aug-21 11:00N 78°36' E 009°30'0 0.0 320 / 141004.8 4.0 2.8 7.4
2016-Aug-21 10:00N 78°36' E 009°30'0 0.0 330 / 141004.3 3.8 2.9 7.3
2016-Aug-21 09:00N 78°36' E 009°30'0 0.0 330 / 171004.0 4.2 3.7 7.3
2016-Aug-21 08:00N 78°36' E 009°30'0 0.0 340 / 141002.9 5.2 4.6 7.2
2016-Aug-21 07:00N 78°36' E 009°30'0 0.0 250 / 101002.5 5.4 4.3 7.2
2016-Aug-21 06:00N 78°36' E 009°30'0 0.0 240 / 141002.5 4.6 3.8 7.3
2016-Aug-21 05:00N 78°36' E 009°30'0 0.0 250 / 161002.2 4.7 3.6 7.2
2016-Aug-21 04:00N 78°36' E 009°30'0 0.0 250 / 161001.8 5.0 4.7 7.3
2016-Aug-21 03:00N 78°36' E 009°30'0 0.0 240 / 171001.4 4.9 4.6 7.4
2016-Aug-21 02:00N 78°36' E 009°30'0 0.0 240 / 171001.2 5.7 5.1 7.2
2016-Aug-21 01:00N 78°36' E 009°30'0 0.0 240 / 161001.0 5.1 4.5 7.3
2016-Aug-21 00:00N 78°36' E 009°30'0 0.0 250 / 141000.8 5.5 5.0 7.2
2016-Aug-20 23:00N 78°36' E 009°30'0 0.0 240 / 161000.6 5.8 4.9 7.3
2016-Aug-20 22:00N 78°36' E 009°30'0 0.0 220 / 161000.9 5.3 4.7 7.2
2016-Aug-20 21:00N 78°36' E 009°30'0 0.0 200 / 121001.2 5.9 5.3 7.2
2016-Aug-20 20:00N 78°36' E 009°30'0 0.0 190 / 171001.4 6.4 4.7 7.3
2016-Aug-20 19:00N 78°36' E 009°30'0 0.0 190 / 141001.7 6.2 5.1 7.3
2016-Aug-20 18:00N 78°36' E 009°30'0 0.0 190 / 141002.0 6.7 4.8 7.2
2016-Aug-20 17:00N 78°36' E 009°30'0 0.0 170 / 161002.6 6.1 6.1 7.2
2016-Aug-20 16:00N 78°36' E 009°30'0 0.0 170 / 161003.3 6.2 5.8 7.3
2016-Aug-20 15:00N 78°36' E 009°30'0 0.0 180 / 171004.1 6.1 5.6 7.3
2016-Aug-20 14:00N 78°36' E 009°30'0 0.0 180 / 191004.7 6.2 5.8 7.3
2016-Aug-20 13:00N 78°36' E 009°30'0 0.0 170 / 191005.7 5.9 5.6 7.2
2016-Aug-20 12:00N 78°36' E 009°30'0 0.0 170 / 171006.5 5.8 5.7 7.3
2016-Aug-20 11:00N 78°36' E 009°30'0 0.0 180 / 171007.6 6.1 5.5 7.2
2016-Aug-20 10:00N 78°36' E 009°30'0 0.0 190 / 141008.3 6.0 5.9 7.3
2016-Aug-20 09:00N 78°36' E 009°30'0 0.0 180 / 161009.0 5.7 5.7 7.2
2016-Aug-20 08:00N 78°36' E 009°30'0 0.0 180 / 161009.0 5.5 4.8 7.2
2016-Aug-20 07:00N 78°36' E 009°30'23 5.8 200 / 171009.5 5.5 4.6 7.2
2016-Aug-20 03:00N 78°18' E 008°18'1313.5 200 / 141011.1 5.6 5.4 7.9
2016-Aug-20 02:00N 78°06' E 007°48'1212.2 210 / 141012.1 5.5 5.5 8.0
2016-Aug-20 01:00N 78°18' E 007°36'6 6.5 220 / 161011.9 5.3 5.3 7.5
2016-Aug-20 00:00N 78°24' E 007°24'10 5.2 210 / 171012.2 5.4 5.3 7.4
2016-Aug-19 22:00N 78°30' E 008°06'10 9.6 200 / 171012.1 6.0 5.5 7.7
2016-Aug-19 21:00N 78°30' E 008°54'9 9.3 210 / 171012.4 5.9 5.8 7.6
2016-Aug-19 20:00N 78°36' E 009°30'0 0.0 200 / 161012.5 6.8 7.8
2016-Aug-19 18:00N 78°36' E 009°30'0 0.0 200 / 171013.1 7.2 7.2 7.8
2016-Aug-19 17:00N 78°36' E 009°30'0 0.0 200 / 171013.2 7.2 7.2 7.7
2016-Aug-19 16:00N 78°36' E 009°30'0 0.0 200 / 161013.0 7.3 7.3 7.7
2016-Aug-19 15:00N 78°36' E 009°30'0 0.0 180 / 161012.9 7.3 7.2 7.7
2016-Aug-19 13:00N 78°36' E 009°30'0 0.0 170 / 141013.3 6.9 6.9 7.7
2016-Aug-19 12:00N 78°36' E 009°30'0 0.0 170 / 141013.2 6.5 6.5 7.7
2016-Aug-19 11:00N 78°36' E 009°30'0 0.0 190 / 161013.5 6.5 7.8
2016-Aug-19 10:00N 78°36' E 009°30'0 0.0 200 / 161013.3 6.4 6.4 7.8
2016-Aug-19 07:00N 78°36' E 009°30'6 6.1 230 / 141012.5 6.5 6.5 7.8
2016-Aug-19 06:00N 78°30' E 009°24'8 8.5 230 / 161012.8 7.0 6.8 7.6
2016-Aug-19 05:00N 78°24' E 008°54'8 7.7 230 / 171012.1 7.1 6.8 7.7
2016-Aug-19 04:00N 78°18' E 008°30'6 3.2 230 / 171012.1 7.2 7.2 8.1
2016-Aug-19 02:00N 78°24' E 008°42'9 9.4 220 / 191010.9 7.5 7.4 8.1
2016-Aug-19 01:00N 78°30' E 009°18'6 6.5 210 / 211010.5 7.3 7.7
2016-Aug-19 00:00N 78°36' E 009°30'0 0.0 200 / 191010.5 7.6 7.4 7.7
2016-Aug-18 23:00N 78°36' E 009°30'0 0.0 200 / 191010.2 7.5 7.5 7.8
2016-Aug-18 22:00N 78°36' E 009°30'0 0.0 190 / 211009.9 7.5 7.5 7.7
2016-Aug-18 20:00N 78°36' E 009°30'0 0.0 180 / 231009.2 7.7 7.7 7.7
2016-Aug-18 19:00N 78°36' E 009°30'0 0.0 180 / 231009.4 7.7 7.7 7.8
2016-Aug-18 18:00N 78°36' E 009°30'0 0.0 180 / 231009.9 7.8 7.7 7.7
2016-Aug-18 17:00N 78°36' E 009°30'0 0.0 170 / 211010.0 7.6 7.7
2016-Aug-18 16:00N 78°36' E 009°30'0 0.0 170 / 191010.4 7.6 7.7
2016-Aug-18 15:00N 78°36' E 009°30'0 0.0 180 / 191009.5 7.7 7.7 7.7
2016-Aug-18 14:00N 78°36' E 009°30'0 0.0 180 / 211009.7 7.7 7.7 7.7
2016-Aug-18 13:00N 78°36' E 009°30'0 0.0 170 / 211009.6 7.7 7.7 7.8
2016-Aug-18 10:00N 78°36' E 009°30'0 0.0 150 / 231011.5 6.9 6.9 7.6
2016-Aug-18 09:00N 78°36' E 009°30'0 0.0 160 / 211011.8 6.8 6.8 7.6
2016-Aug-18 08:00N 78°36' E 009°30'6 6.1 170 / 251011.7 6.6 6.5 7.2
2016-Aug-18 07:00N 78°42' E 009°24'6 6.1 170 / 251011.8 6.2 6.9
2016-Aug-18 06:00N 78°36' E 009°30'0 0.0 180 / 191012.7 5.9 5.3 7.2
2016-Aug-18 05:00N 78°36' E 009°30'0 0.0 180 / 211012.3 6.1 6.0 7.9
2016-Aug-18 04:00N 78°36' E 009°30'0 0.0 180 / 171012.4 5.7 5.5 7.8
2016-Aug-18 03:00N 78°36' E 009°30'0 0.0 200 / 161013.4 5.4 5.3 7.9
2016-Aug-18 02:00N 78°36' E 009°30'0 0.0 220 / 141012.5 6.2 5.8 7.8
2016-Aug-17 23:00N 78°36' E 009°30'0 0.0 290 / 161010.8 6.2 5.9 7.8
2016-Aug-17 22:00N 78°36' E 009°30'0 0.0 290 / 211009.2 6.1 6.1 7.8
2016-Aug-17 21:00N 78°36' E 009°30'0 0.0 280 / 211007.2 6.1 7.8
2016-Aug-17 20:00N 78°36' E 009°30'0 0.0 260 / 191006.6 6.8 7.8
2016-Aug-17 19:00N 78°36' E 009°30'1 0.6 240 / 171006.2 7.1 7.0 7.8
2016-Aug-17 17:00N 78°36' E 009°24'7 7.0 210 / 161004.6 7.0 7.9
2016-Aug-17 16:00N 78°30' E 009°06'1110.8 210 / 161004.0 7.1 7.1 8.0
2016-Aug-17 15:00N 78°30' E 008°12'10 9.6 210 / 171003.4 7.0 7.0 8.1
2016-Aug-17 14:00N 78°30' E 007°24'24 3.4 210 / 171003.2 7.0 7.0 7.5
2016-Aug-17 07:00N 78°18' E 005°42'6 1.2 120 / 231005.5 7.0 6.9 7.8
2016-Aug-17 02:00N 78°24' E 005°42'0 0.0 120 / 141010.3 7.4 6.3 7.7
2016-Aug-17 01:00N 78°24' E 005°42'0 0.0 120 / 161011.2 7.1 6.0 7.6
2016-Aug-16 23:00N 78°24' E 005°42'0 0.0 140 / 171013.0 6.9 4.6 7.6
2016-Aug-16 22:00N 78°24' E 005°42'6 3.1 150 / 161013.6 6.5 4.6 7.6
2016-Aug-16 20:00N 78°18' E 005°48'1 1.2 150 / 141014.8 5.9 3.8 7.1
2016-Aug-16 19:00N 78°18' E 005°42'6 6.0 160 / 161015.0 5.9 4.0 7.6
2016-Aug-16 18:00N 78°24' E 005°42'6 6.0 170 / 161015.4 6.1 4.2 7.6
2016-Aug-16 17:00N 78°30' E 005°42'6 6.1 170 / 141015.5 6.2 2.9 7.5
2016-Aug-16 16:00N 78°36' E 005°48'1 1.2 190 / 121015.9 6.7 3.2 7.4
2016-Aug-16 15:00N 78°36' E 005°42'0 0.0 200 / 141016.1 6.7 2.8 7.5
2016-Aug-16 14:00N 78°36' E 005°42'13 6.6 200 / 161016.5 6.6 3.2 7.5
2016-Aug-16 12:00N 78°42' E 006°42'9 9.4 210 / 171016.4 6.6 4.1 7.6
2016-Aug-16 11:00N 78°42' E 007°30'1111.2 200 / 161016.6 6.7 4.2 7.9
2016-Aug-16 10:00N 78°36' E 008°18'9 9.5 190 / 141016.4 6.1 4.1 7.1
2016-Aug-16 09:00N 78°36' E 009°06'5 2.4 190 / 101016.4 5.1 2.8 6.9
2016-Aug-16 07:00N 78°36' E 009°30'0 0.0 220 / 61016.4 4.9 3.4 7.2
2016-Aug-16 06:00N 78°36' E 009°30'0 0.0 230 / 81016.0 5.0 3.8 7.3
2016-Aug-16 05:00N 78°36' E 009°30'0 0.0 260 / 61015.9 5.0 3.7 7.3
2016-Aug-16 03:00N 78°36' E 009°30'0 0.0 999 / 21015.2 6.2 3.8 7.3
2016-Aug-16 02:00N 78°36' E 009°30'0 0.0 999 / 21014.5 5.6 4.0 7.2
2016-Aug-16 01:00N 78°36' E 009°30'0 0.0 280 / 41014.4 5.6 4.3 7.2
2016-Aug-16 00:00N 78°36' E 009°30'0 0.0 150 / 61014.3 6.1 4.4 7.2
2016-Aug-15 22:00N 78°36' E 009°30'0 0.0 210 / 41013.9 5.8 4.0 7.2
2016-Aug-15 21:00N 78°36' E 009°30'0 0.0 220 / 61013.9 5.8 3.7 7.4
2016-Aug-15 20:00N 78°36' E 009°30'0 0.0 170 / 101013.9 5.4 3.3 7.2
2016-Aug-15 18:00N 78°36' E 009°30'0 0.0 180 / 81014.1 5.0 1.4 7.4
2016-Aug-15 16:00N 78°36' E 009°30'0 0.0 190 / 141014.2 5.5 2.8 7.2
2016-Aug-15 15:00N 78°36' E 009°30'0 0.0 160 / 141014.3 5.3 2.1 7.2
2016-Aug-15 14:00N 78°36' E 009°30'0 0.0 150 / 141014.2 4.9 1.5 7.1
2016-Aug-15 13:00N 78°36' E 009°30'1 0.6 180 / 121014.5 5.2 0.6 7.3
2016-Aug-15 11:00N 78°36' E 009°24'0 0.0 180 / 141014.7 4.9 1.8 7.3
2016-Aug-15 10:00N 78°36' E 009°24'0 0.0 200 / 121014.4 4.6 1.3 7.2
2016-Aug-15 09:00N 78°36' E 009°24'0 0.0 220 / 81014.3 4.3 1.2 7.3
2016-Aug-15 08:00N 78°36' E 009°24'0 0.0 210 / 101014.0 4.3 1.3 7.3
2016-Aug-15 07:00N 78°36' E 009°24'0 0.0 999 / 21013.9 4.4 1.3 7.3
2016-Aug-15 06:00N 78°36' E 009°24'0 0.0 260 / 61013.9 4.1 0.3 7.1
2016-Aug-15 04:00N 78°36' E 009°24'0 0.0 260 / 41013.5 3.7 0.5 7.2
2016-Aug-15 03:00N 78°36' E 009°24'0 0.0 270 / 61013.5 4.2 0.7 7.2
2016-Aug-15 02:00N 78°36' E 009°24'0 0.0 300 / 61012.6 3.8 1.0 7.2
2016-Aug-15 01:00N 78°36' E 009°24'0 0.0 300 / 101012.3 3.6 1.4 7.2
2016-Aug-15 00:00N 78°36' E 009°24'0 0.0 290 / 81012.0 3.8 0.6 7.2
2016-Aug-14 23:00N 78°36' E 009°24'0 0.0 310 / 61011.3 4.1 0.6 7.2
2016-Aug-14 22:00N 78°36' E 009°24'0 0.0 270 / 61010.9 4.1-0.1 7.1
2016-Aug-14 21:00N 78°36' E 009°24'0 0.0 300 / 41010.5 4.2-0.5 7.1
2016-Aug-14 20:00N 78°36' E 009°24'0 0.0 310 / 81010.0 4.2 0.4 7.2
2016-Aug-14 19:00N 78°36' E 009°24'0 0.0 320 / 81009.7 4.2-0.2 7.3
2016-Aug-14 18:00N 78°36' E 009°24'0 0.0 320 / 101009.0 4.1 0.5 7.3
2016-Aug-14 17:00N 78°36' E 009°24'0 0.0 320 / 121008.4 4.2 0.9 7.3
2016-Aug-14 16:00N 78°36' E 009°24'7 7.0 310 / 121007.7 4.1 1.2 7.2
2016-Aug-14 15:00N 78°42' E 009°06'19 9.6 310 / 121007.0 4.6 1.9 7.2
2016-Aug-14 13:00N 79°00' E 008°30'6 6.0 330 / 191004.9 4.3 3.0 7.2
2016-Aug-14 12:00N 78°54' E 008°30'6 6.4 280 / 121003.4 5.1 2.5 6.7
2016-Aug-14 11:00N 78°48' E 008°42'9 9.2 260 / 191002.6 4.0 2.2 7.2
2016-Aug-14 10:00N 78°42' E 009°18'1212.1 250 / 171002.5 4.5 3.6 7.4
2016-Aug-14 09:00N 78°30' E 009°24'6 3.0 220 / 271002.4 5.5 4.0 7.1
2016-Aug-14 07:00N 78°36' E 009°24'0 0.0 220 / 271002.3 4.9 3.0 7.3
2016-Aug-14 06:00N 78°36' E 009°24'0 0.0 220 / 271002.0 6.4 4.3 7.2
2016-Aug-14 05:00N 78°36' E 009°24'6 6.0 200 / 231002.5 6.3 5.1 7.2
2016-Aug-14 04:00N 78°30' E 009°24'1 1.2 190 / 251003.2 6.1 5.2 7.2
2016-Aug-14 03:00N 78°30' E 009°30'6 6.1 190 / 211004.1 7.0 5.3 7.2
2016-Aug-14 02:00N 78°36' E 009°24'0 0.0 190 / 211004.7 5.8 5.0 7.2
2016-Aug-14 01:00N 78°36' E 009°24'6 6.1 180 / 191005.6 6.4 4.6 7.2
2016-Aug-14 00:00N 78°30' E 009°30'2 1.2 190 / 171006.0 6.1 4.4 7.3
2016-Aug-13 22:00N 78°30' E 009°18'   200 / 191006.5 6.1 3.9 7.2

Dump ship's entire track history